sensor_id;sensor_type;location;lat;lon;timestamp;pressure;altitude;pressure_sealevel;temperature;humidity
8637;BME280;4356;49.068;8.658;2023-10-09T00:00:15;100504.91;;;22.89;40.85
8637;BME280;4356;49.068;8.658;2023-10-09T00:03:00;100504.78;;;22.84;40.81
8637;BME280;4356;49.068;8.658;2023-10-09T00:05:27;100501.81;;;22.85;41.05
8637;BME280;4356;49.068;8.658;2023-10-09T00:08:16;100500.16;;;22.84;41.01
8637;BME280;4356;49.068;8.658;2023-10-09T00:10:44;100489.63;;;22.81;40.98
8637;BME280;4356;49.068;8.658;2023-10-09T00:13:23;100500.38;;;22.83;40.91
8637;BME280;4356;49.068;8.658;2023-10-09T00:16:04;100497.88;;;22.81;40.83
8637;BME280;4356;49.068;8.658;2023-10-09T00:18:41;100497.06;;;22.81;40.99
8637;BME280;4356;49.068;8.658;2023-10-09T00:21:18;100483.81;;;22.78;40.93
8637;BME280;4356;49.068;8.658;2023-10-09T00:23:46;100486.28;;;22.79;40.86
8637;BME280;4356;49.068;8.658;2023-10-09T00:26:24;100481.06;;;22.78;41.04
8637;BME280;4356;49.068;8.658;2023-10-09T00:28:50;100483.19;;;22.76;41.30
8637;BME280;4356;49.068;8.658;2023-10-09T00:31:17;100484.03;;;22.76;41.06
8637;BME280;4356;49.068;8.658;2023-10-09T00:33:52;100474.16;;;22.75;41.00
8637;BME280;4356;49.068;8.658;2023-10-09T00:36:20;100473.06;;;22.76;41.23
8637;BME280;4356;49.068;8.658;2023-10-09T00:38:53;100464.97;;;22.70;41.01
8637;BME280;4356;49.068;8.658;2023-10-09T00:41:18;100474.41;;;22.74;41.24
8637;BME280;4356;49.068;8.658;2023-10-09T00:43:50;100470.22;;;22.71;41.07
8637;BME280;4356;49.068;8.658;2023-10-09T00:46:18;100473.19;;;22.70;41.11
8637;BME280;4356;49.068;8.658;2023-10-09T00:48:44;100456.25;;;22.61;40.95
8637;BME280;4356;49.068;8.658;2023-10-09T00:51:13;100481.19;;;22.71;41.17
8637;BME280;4356;49.068;8.658;2023-10-09T00:53:47;100468.53;;;22.70;41.24
8637;BME280;4356;49.068;8.658;2023-10-09T00:56:17;100455.56;;;22.66;41.01
8637;BME280;4356;49.068;8.658;2023-10-09T00:59:01;100465.22;;;22.68;41.20
8637;BME280;4356;49.068;8.658;2023-10-09T01:01:34;100455.56;;;22.66;41.18
8637;BME280;4356;49.068;8.658;2023-10-09T01:04:05;100462.13;;;22.65;41.31
8637;BME280;4356;49.068;8.658;2023-10-09T01:06:45;100460.44;;;22.64;41.32
8637;BME280;4356;49.068;8.658;2023-10-09T01:09:13;100457.22;;;22.67;41.13
8637;BME280;4356;49.068;8.658;2023-10-09T01:11:43;100458.53;;;22.64;41.08
8637;BME280;4356;49.068;8.658;2023-10-09T01:14:28;100454.13;;;22.63;41.34
8637;BME280;4356;49.068;8.658;2023-10-09T01:16:54;100448.41;;;22.65;41.27
8637;BME280;4356;49.068;8.658;2023-10-09T01:19:20;100446.97;;;22.62;41.38
8637;BME280;4356;49.068;8.658;2023-10-09T01:21:52;100436.94;;;22.56;41.35
8637;BME280;4356;49.068;8.658;2023-10-09T01:24:18;100450.19;;;22.59;41.25
8637;BME280;4356;49.068;8.658;2023-10-09T01:26:45;100446.63;;;22.59;41.49
8637;BME280;4356;49.068;8.658;2023-10-09T01:29:21;100448.03;;;22.61;41.58
8637;BME280;4356;49.068;8.658;2023-10-09T01:31:48;100435.06;;;22.57;41.22
8637;BME280;4356;49.068;8.658;2023-10-09T01:34:29;100438.88;;;22.56;41.23
8637;BME280;4356;49.068;8.658;2023-10-09T01:37:07;100431.22;;;22.58;41.17
8637;BME280;4356;49.068;8.658;2023-10-09T01:39:58;100423.72;;;22.53;41.27
8637;BME280;4356;49.068;8.658;2023-10-09T01:42:24;100417.63;;;22.51;41.31
8637;BME280;4356;49.068;8.658;2023-10-09T01:44:59;100422.00;;;22.52;41.48
8637;BME280;4356;49.068;8.658;2023-10-09T01:47:35;100419.53;;;22.50;41.21
8637;BME280;4356;49.068;8.658;2023-10-09T01:50:04;100416.78;;;22.50;41.44
8637;BME280;4356;49.068;8.658;2023-10-09T01:52:30;100417.88;;;22.49;41.39
8637;BME280;4356;49.068;8.658;2023-10-09T01:54:55;100417.63;;;22.51;41.40
8637;BME280;4356;49.068;8.658;2023-10-09T01:57:29;100426.94;;;22.50;41.49
8637;BME280;4356;49.068;8.658;2023-10-09T01:59:55;100408.09;;;22.42;41.22
8637;BME280;4356;49.068;8.658;2023-10-09T02:02:23;100415.56;;;22.46;41.51
8637;BME280;4356;49.068;8.658;2023-10-09T02:05:05;100416.19;;;22.48;41.42
8637;BME280;4356;49.068;8.658;2023-10-09T02:07:40;100414.75;;;22.46;41.35
8637;BME280;4356;49.068;8.658;2023-10-09T02:10:15;100407.34;;;22.46;41.35
8637;BME280;4356;49.068;8.658;2023-10-09T02:13:02;100412.03;;;22.46;41.83
8637;BME280;4356;49.068;8.658;2023-10-09T02:15:41;100407.84;;;22.43;41.43
8637;BME280;4356;49.068;8.658;2023-10-09T02:18:11;100408.44;;;22.45;41.30
8637;BME280;4356;49.068;8.658;2023-10-09T02:23:38;100407.00;;;22.43;41.38
8637;BME280;4356;49.068;8.658;2023-10-09T02:26:19;100400.09;;;22.40;41.56
8637;BME280;4356;49.068;8.658;2023-10-09T02:28:45;100407.00;;;22.43;41.40
8637;BME280;4356;49.068;8.658;2023-10-09T02:31:18;100405.34;;;22.42;41.37
8637;BME280;4356;49.068;8.658;2023-10-09T02:33:48;100402.00;;;22.40;41.45
8637;BME280;4356;49.068;8.658;2023-10-09T02:36:16;100406.19;;;22.42;41.30
8637;BME280;4356;49.068;8.658;2023-10-09T02:38:41;100401.16;;;22.39;41.43
8637;BME280;4356;49.068;8.658;2023-10-09T02:41:08;100393.78;;;22.40;41.42
8637;BME280;4356;49.068;8.658;2023-10-09T02:43:39;100394.03;;;22.38;41.42
8637;BME280;4356;49.068;8.658;2023-10-09T02:46:19;100396.16;;;22.36;41.41
8637;BME280;4356;49.068;8.658;2023-10-09T02:48:46;100379.50;;;22.38;41.33
8637;BME280;4356;49.068;8.658;2023-10-09T02:51:23;100391.88;;;22.40;41.44
8637;BME280;4356;49.068;8.658;2023-10-09T02:53:55;100382.00;;;22.39;41.39
8637;BME280;4356;49.068;8.658;2023-10-09T02:56:22;100388.56;;;22.38;41.43
8637;BME280;4356;49.068;8.658;2023-10-09T02:59:01;100383.31;;;22.37;41.46
8637;BME280;4356;49.068;8.658;2023-10-09T03:01:31;100374.75;;;22.33;41.46
8637;BME280;4356;49.068;8.658;2023-10-09T03:03:56;100371.41;;;22.31;41.43
8637;BME280;4356;49.068;8.658;2023-10-09T03:06:24;100373.66;;;22.34;41.48
8637;BME280;4356;49.068;8.658;2023-10-09T03:08:53;100368.28;;;22.28;41.44
8637;BME280;4356;49.068;8.658;2023-10-09T03:11:20;100374.50;;;22.35;41.36
8637;BME280;4356;49.068;8.658;2023-10-09T03:13:45;100365.81;;;22.26;41.32
8637;BME280;4356;49.068;8.658;2023-10-09T03:16:12;100376.41;;;22.34;41.49
8637;BME280;4356;49.068;8.658;2023-10-09T03:18:49;100376.41;;;22.34;41.47
8637;BME280;4356;49.068;8.658;2023-10-09T03:21:14;100382.09;;;22.33;41.45
8637;BME280;4356;49.068;8.658;2023-10-09T03:23:46;100371.41;;;22.31;41.46
8637;BME280;4356;49.068;8.658;2023-10-09T03:26:18;100375.56;;;22.34;41.25
8637;BME280;4356;49.068;8.658;2023-10-09T03:28:48;100374.75;;;22.33;41.40
8637;BME280;4356;49.068;8.658;2023-10-09T03:31:13;100374.59;;;22.28;41.53
8637;BME280;4356;49.068;8.658;2023-10-09T03:33:40;100380.22;;;22.33;41.60
8637;BME280;4356;49.068;8.658;2023-10-09T03:36:05;100376.88;;;22.31;41.29
8637;BME280;4356;49.068;8.658;2023-10-09T03:38:37;100387.81;;;22.31;41.47
8637;BME280;4356;49.068;8.658;2023-10-09T03:41:07;100375.78;;;22.32;41.52
8637;BME280;4356;49.068;8.658;2023-10-09T03:43:35;100375.44;;;22.29;41.47
8637;BME280;4356;49.068;8.658;2023-10-09T03:46:10;100377.94;;;22.30;41.46
8637;BME280;4356;49.068;8.658;2023-10-09T03:48:57;100374.38;;;22.30;41.50
8637;BME280;4356;49.068;8.658;2023-10-09T03:51:26;100379.00;;;22.29;41.68
8637;BME280;4356;49.068;8.658;2023-10-09T03:53:52;100373.53;;;22.29;41.50
8637;BME280;4356;49.068;8.658;2023-10-09T03:56:18;100370.19;;;22.27;41.45
8637;BME280;4356;49.068;8.658;2023-10-09T03:58:50;100378.66;;;22.26;41.65
8637;BME280;4356;49.068;8.658;2023-10-09T04:01:18;100387.22;;;22.29;41.67
8637;BME280;4356;49.068;8.658;2023-10-09T04:03:54;100390.44;;;22.26;41.63
8637;BME280;4356;49.068;8.658;2023-10-09T04:06:23;100388.75;;;22.25;41.51
8637;BME280;4356;49.068;8.658;2023-10-09T04:08:54;100382.69;;;22.23;41.42
8637;BME280;4356;49.068;8.658;2023-10-09T04:11:20;100378.53;;;22.21;41.60
8637;BME280;4356;49.068;8.658;2023-10-09T04:13:48;100385.41;;;22.23;41.47
8637;BME280;4356;49.068;8.658;2023-10-09T04:16:36;100388.03;;;22.18;41.66
8637;BME280;4356;49.068;8.658;2023-10-09T04:19:16;100392.56;;;22.24;41.51
8637;BME280;4356;49.068;8.658;2023-10-09T04:21:46;100393.25;;;22.20;41.54
8637;BME280;4356;49.068;8.658;2023-10-09T04:24:13;100407.31;;;22.23;41.50
8637;BME280;4356;49.068;8.658;2023-10-09T04:26:43;100410.06;;;22.23;41.64
8637;BME280;4356;49.068;8.658;2023-10-09T04:29:15;100393.03;;;22.21;41.61
8637;BME280;4356;49.068;8.658;2023-10-09T04:31:54;100384.44;;;22.18;41.64
8637;BME280;4356;49.068;8.658;2023-10-09T04:34:22;100390.53;;;22.20;41.56
8637;BME280;4356;49.068;8.658;2023-10-09T04:36:49;100377.06;;;22.18;41.58
8637;BME280;4356;49.068;8.658;2023-10-09T04:39:16;100387.44;;;22.16;41.57
8637;BME280;4356;49.068;8.658;2023-10-09T04:41:57;100386.94;;;22.19;41.55
8637;BME280;4356;49.068;8.658;2023-10-09T04:44:42;100387.44;;;22.16;41.55
8637;BME280;4356;49.068;8.658;2023-10-09T04:47:32;100383.84;;;22.16;41.46
8637;BME280;4356;49.068;8.658;2023-10-09T04:50:10;100388.50;;;22.15;41.51
8637;BME280;4356;49.068;8.658;2023-10-09T04:52:54;100384.09;;;22.14;41.61
8637;BME280;4356;49.068;8.658;2023-10-09T04:55:20;100382.19;;;22.15;41.49
8637;BME280;4356;49.068;8.658;2023-10-09T04:57:50;100378.00;;;22.12;41.53
8637;BME280;4356;49.068;8.658;2023-10-09T05:00:26;100368.38;;;22.10;41.77
8637;BME280;4356;49.068;8.658;2023-10-09T05:03:02;100375.06;;;22.14;41.59
8637;BME280;4356;49.068;8.658;2023-10-09T05:05:39;100376.13;;;22.13;41.54
8637;BME280;4356;49.068;8.658;2023-10-09T05:08:11;100375.28;;;22.12;41.54
8637;BME280;4356;49.068;8.658;2023-10-09T05:13:24;100376.34;;;22.11;41.46
8637;BME280;4356;49.068;8.658;2023-10-09T05:16:09;100371.34;;;22.08;41.56
8637;BME280;4356;49.068;8.658;2023-10-09T05:18:47;100374.66;;;22.10;41.59
8637;BME280;4356;49.068;8.658;2023-10-09T05:21:23;100365.03;;;22.08;41.67
8637;BME280;4356;49.068;8.658;2023-10-09T05:23:58;100371.34;;;22.08;41.64
8637;BME280;4356;49.068;8.658;2023-10-09T05:29:14;100370.75;;;22.06;41.54
8637;BME280;4356;49.068;8.658;2023-10-09T05:32:05;100379.19;;;22.05;41.79
8637;BME280;4356;49.068;8.658;2023-10-09T05:34:41;100381.09;;;22.04;41.83
8637;BME280;4356;49.068;8.658;2023-10-09T05:37:34;100384.44;;;22.06;41.81
8637;BME280;4356;49.068;8.658;2023-10-09T05:40:01;100383.34;;;22.07;41.85
8637;BME280;4356;49.068;8.658;2023-10-09T05:42:28;100385.50;;;22.05;41.81
8637;BME280;4356;49.068;8.658;2023-10-09T05:45:07;100372.66;;;22.06;41.72
8637;BME280;4356;49.068;8.658;2023-10-09T05:47:49;100378.72;;;22.08;41.65
8637;BME280;4356;49.068;8.658;2023-10-09T05:50:33;100376.22;;;22.06;41.83
8637;BME280;4356;49.068;8.658;2023-10-09T05:53:00;100377.88;;;22.07;41.75
8637;BME280;4356;49.068;8.658;2023-10-09T05:55:27;100376.00;;;22.08;41.73
8637;BME280;4356;49.068;8.658;2023-10-09T05:57:58;100391.56;;;22.07;41.67
8637;BME280;4356;49.068;8.658;2023-10-09T06:00:46;100391.56;;;22.07;41.69
8637;BME280;4356;49.068;8.658;2023-10-09T06:03:30;100396.19;;;22.07;41.91
8637;BME280;4356;49.068;8.658;2023-10-09T06:06:22;100393.69;;;22.05;41.73
8637;BME280;4356;49.068;8.658;2023-10-09T06:09:08;100397.88;;;22.08;41.71
8637;BME280;4356;49.068;8.658;2023-10-09T06:11:43;100401.47;;;22.08;41.77
8637;BME280;4356;49.068;8.658;2023-10-09T06:14:36;100404.41;;;22.07;41.71
8637;BME280;4356;49.068;8.658;2023-10-09T06:17:01;100408.22;;;22.06;41.81
8637;BME280;4356;49.068;8.658;2023-10-09T06:19:27;100406.34;;;22.06;41.95
8637;BME280;4356;49.068;8.658;2023-10-09T06:21:59;100418.94;;;22.07;41.79
8637;BME280;4356;49.068;8.658;2023-10-09T06:24:43;100420.84;;;22.07;41.84
8637;BME280;4356;49.068;8.658;2023-10-09T06:27:10;100423.38;;;22.08;41.76
8637;BME280;4356;49.068;8.658;2023-10-09T06:29:35;100424.66;;;22.06;41.76
8637;BME280;4356;49.068;8.658;2023-10-09T06:32:08;100434.88;;;22.10;41.62
8637;BME280;4356;49.068;8.658;2023-10-09T06:34:47;100412.88;;;22.05;41.63
8637;BME280;4356;49.068;8.658;2023-10-09T06:37:24;100426.53;;;22.05;41.72
8637;BME280;4356;49.068;8.658;2023-10-09T06:39:54;100432.16;;;22.10;41.76
8637;BME280;4356;49.068;8.658;2023-10-09T06:42:20;100417.53;;;22.05;41.64
8637;BME280;4356;49.068;8.658;2023-10-09T06:45:08;100424.41;;;22.07;41.79
8637;BME280;4356;49.068;8.658;2023-10-09T06:47:45;100425.03;;;22.09;41.81
8637;BME280;4356;49.068;8.658;2023-10-09T06:50:22;100413.94;;;22.04;41.74
8637;BME280;4356;49.068;8.658;2023-10-09T06:52:48;100417.53;;;22.05;41.75
8637;BME280;4356;49.068;8.658;2023-10-09T06:55:35;100422.53;;;22.08;41.74
8637;BME280;4356;49.068;8.658;2023-10-09T06:58:17;100416.91;;;22.03;41.78
8637;BME280;4356;49.068;8.658;2023-10-09T07:00:52;100420.03;;;22.06;41.66
8637;BME280;4356;49.068;8.658;2023-10-09T07:03:23;100414.19;;;22.03;41.91
8637;BME280;4356;49.068;8.658;2023-10-09T07:06:10;100415.59;;;22.05;41.53
8637;BME280;4356;49.068;8.658;2023-10-09T07:09:11;100424.66;;;22.06;41.75
8637;BME280;4356;49.068;8.658;2023-10-09T07:11:44;100430.38;;;22.04;41.73
8637;BME280;4356;49.068;8.658;2023-10-09T07:14:13;100424.88;;;22.04;41.58
8637;BME280;4356;49.068;8.658;2023-10-09T07:17:01;100421.91;;;22.06;41.81
8637;BME280;4356;49.068;8.658;2023-10-09T07:19:42;100427.63;;;22.04;41.78
8637;BME280;4356;49.068;8.658;2023-10-09T07:22:08;100426.19;;;22.02;41.82
8637;BME280;4356;49.068;8.658;2023-10-09T07:24:54;100430.38;;;22.04;41.75
8637;BME280;4356;49.068;8.658;2023-10-09T07:27:26;100430.97;;;22.06;41.89
8637;BME280;4356;49.068;8.658;2023-10-09T07:30:12;100429.28;;;22.05;41.69
8637;BME280;4356;49.068;8.658;2023-10-09T07:33:01;100415.00;;;22.03;41.46
8637;BME280;4356;49.068;8.658;2023-10-09T07:35:36;100427.38;;;22.06;41.73
8637;BME280;4356;49.068;8.658;2023-10-09T07:38:12;100416.44;;;22.06;41.93
8637;BME280;4356;49.068;8.658;2023-10-09T07:40:40;100409.53;;;22.03;41.67
8637;BME280;4356;49.068;8.658;2023-10-09T07:43:26;100410.13;;;22.05;41.91
8637;BME280;4356;49.068;8.658;2023-10-09T07:45:56;100420.03;;;22.06;41.72
8637;BME280;4356;49.068;8.658;2023-10-09T07:48:25;100425.03;;;22.09;41.75
8637;BME280;4356;49.068;8.658;2023-10-09T07:51:11;100425.50;;;22.06;41.70
8637;BME280;4356;49.068;8.658;2023-10-09T07:53:36;100421.44;;;22.09;41.72
8637;BME280;4356;49.068;8.658;2023-10-09T07:56:09;100430.03;;;22.12;41.85
8637;BME280;4356;49.068;8.658;2023-10-09T07:58:34;100417.41;;;22.11;41.68
8637;BME280;4356;49.068;8.658;2023-10-09T08:01:12;100427.66;;;22.16;41.62
8637;BME280;4356;49.068;8.658;2023-10-09T08:03:42;100422.41;;;22.14;41.69
8637;BME280;4356;49.068;8.658;2023-10-09T08:06:14;100417.78;;;22.15;41.61
8637;BME280;4356;49.068;8.658;2023-10-09T08:08:59;100421.34;;;22.15;41.59
8637;BME280;4356;49.068;8.658;2023-10-09T08:11:27;100431.84;;;22.18;41.56
8637;BME280;4356;49.068;8.658;2023-10-09T08:14:08;100433.72;;;22.18;41.67
8637;BME280;4356;49.068;8.658;2023-10-09T08:17:05;100430.19;;;22.17;41.48
8637;BME280;4356;49.068;8.658;2023-10-09T08:19:41;100436.84;;;22.21;41.56
8637;BME280;4356;49.068;8.658;2023-10-09T08:22:23;100437.31;;;22.18;41.49
8637;BME280;4356;49.068;8.658;2023-10-09T08:24:48;100445.03;;;22.21;41.76
8637;BME280;4356;49.068;8.658;2023-10-09T08:27:26;100448.16;;;22.25;41.53
8637;BME280;4356;49.068;8.658;2023-10-09T08:29:58;100447.09;;;22.26;41.49
8637;BME280;4356;49.068;8.658;2023-10-09T08:32:39;100445.22;;;22.26;41.55
8637;BME280;4356;49.068;8.658;2023-10-09T08:35:06;100449.59;;;22.27;41.48
8637;BME280;4356;49.068;8.658;2023-10-09T08:37:50;100446.50;;;22.24;41.37
8637;BME280;4356;49.068;8.658;2023-10-09T08:40:16;100448.50;;;22.28;41.36
8637;BME280;4356;49.068;8.658;2023-10-09T08:42:53;100432.19;;;22.22;41.56
8637;BME280;4356;49.068;8.658;2023-10-09T08:45:22;100465.34;;;22.32;41.41
8637;BME280;4356;49.068;8.658;2023-10-09T08:47:53;100463.41;;;22.32;41.16
8637;BME280;4356;49.068;8.658;2023-10-09T08:50:20;100466.16;;;22.32;41.29
8637;BME280;4356;49.068;8.658;2023-10-09T08:52:48;100462.59;;;22.32;41.43
8637;BME280;4356;49.068;8.658;2023-10-09T08:55:14;100454.38;;;22.32;41.40
8637;BME280;4356;49.068;8.658;2023-10-09T08:57:45;100451.66;;;22.32;41.46
8637;BME280;4356;49.068;8.658;2023-10-09T09:00:18;100453.19;;;22.39;41.28
8637;BME280;4356;49.068;8.658;2023-10-09T09:02:52;100461.19;;;22.41;41.23
8637;BME280;4356;49.068;8.658;2023-10-09T09:05:19;100458.22;;;22.42;41.38
8637;BME280;4356;49.068;8.658;2023-10-09T09:07:46;100448.78;;;22.38;41.30
8637;BME280;4356;49.068;8.658;2023-10-09T09:10:11;100450.00;;;22.42;41.12
8637;BME280;4356;49.068;8.658;2023-10-09T09:12:46;100457.75;;;22.45;41.18
8637;BME280;4356;49.068;8.658;2023-10-09T09:15:16;100463.81;;;22.47;41.17
8637;BME280;4356;49.068;8.658;2023-10-09T09:17:44;100438.91;;;22.37;41.20
8637;BME280;4356;49.068;8.658;2023-10-09T09:20:25;100459.56;;;22.52;41.30
8637;BME280;4356;49.068;8.658;2023-10-09T09:23:00;100464.56;;;22.55;40.97
8637;BME280;4356;49.068;8.658;2023-10-09T09:25:49;100460.56;;;22.57;41.33
8637;BME280;4356;49.068;8.658;2023-10-09T09:28:24;100460.06;;;22.60;41.08
8637;BME280;4356;49.068;8.658;2023-10-09T09:30:52;100461.38;;;22.58;41.24
8637;BME280;4356;49.068;8.658;2023-10-09T09:33:26;100457.09;;;22.62;41.29
8637;BME280;4356;49.068;8.658;2023-10-09T09:36:02;100462.69;;;22.67;41.11
8637;BME280;4356;49.068;8.658;2023-10-09T09:38:29;100438.88;;;22.56;41.00
8637;BME280;4356;49.068;8.658;2023-10-09T09:41:01;100463.06;;;22.70;41.25
8637;BME280;4356;49.068;8.658;2023-10-09T09:43:33;100460.72;;;22.74;40.90
8637;BME280;4356;49.068;8.658;2023-10-09T09:46:00;100456.63;;;22.76;41.15
8637;BME280;4356;49.068;8.658;2023-10-09T09:48:30;100457.00;;;22.80;41.07
8637;BME280;4356;49.068;8.658;2023-10-09T09:50:57;100460.94;;;22.84;41.03
8637;BME280;4356;49.068;8.658;2023-10-09T09:53:23;100457.97;;;22.85;41.03
8637;BME280;4356;49.068;8.658;2023-10-09T09:55:53;100460.22;;;22.88;40.98
8637;BME280;4356;49.068;8.658;2023-10-09T09:58:25;100463.09;;;22.93;40.98
8637;BME280;4356;49.068;8.658;2023-10-09T10:01:08;100459.03;;;22.96;40.85
8637;BME280;4356;49.068;8.658;2023-10-09T10:04:02;100451.91;;;22.95;40.76
8637;BME280;4356;49.068;8.658;2023-10-09T10:06:31;100459.19;;;23.01;40.77
8637;BME280;4356;49.068;8.658;2023-10-09T10:08:58;100445.69;;;22.99;40.77
8637;BME280;4356;49.068;8.658;2023-10-09T10:11:43;100444.97;;;23.04;40.97
8637;BME280;4356;49.068;8.658;2023-10-09T10:14:13;100446.03;;;23.03;40.61
8637;BME280;4356;49.068;8.658;2023-10-09T10:17:08;100450.72;;;23.02;40.71
8637;BME280;4356;49.068;8.658;2023-10-09T10:20:05;100451.06;;;23.06;40.92
8637;BME280;4356;49.068;8.658;2023-10-09T10:22:42;100460.09;;;23.06;40.87
8637;BME280;4356;49.068;8.658;2023-10-09T10:28:22;100448.91;;;23.08;40.96
8637;BME280;4356;49.068;8.658;2023-10-09T10:30:54;100458.19;;;23.07;40.93
8637;BME280;4356;49.068;8.658;2023-10-09T10:33:20;100448.31;;;23.06;40.82
8637;BME280;4356;49.068;8.658;2023-10-09T10:35:48;100443.19;;;23.09;40.69
8637;BME280;4356;49.068;8.658;2023-10-09T10:40:50;100448.91;;;23.19;40.64
8637;BME280;4356;49.068;8.658;2023-10-09T10:43:23;100444.84;;;23.22;40.63
8637;BME280;4356;49.068;8.658;2023-10-09T10:46:07;100456.56;;;23.29;40.62
8637;BME280;4356;49.068;8.658;2023-10-09T10:48:52;100452.94;;;23.28;40.88
8637;BME280;4356;49.068;8.658;2023-10-09T10:51:25;100450.00;;;23.30;40.43
8637;BME280;4356;49.068;8.658;2023-10-09T10:54:01;100457.75;;;23.33;40.26
8637;BME280;4356;49.068;8.658;2023-10-09T10:56:47;100461.09;;;23.35;40.39
8637;BME280;4356;49.068;8.658;2023-10-09T10:59:13;100450.13;;;23.35;40.53
8637;BME280;4356;49.068;8.658;2023-10-09T11:01:39;100448.19;;;23.35;40.49
8637;BME280;4356;49.068;8.658;2023-10-09T11:04:28;100442.13;;;23.33;40.74
8637;BME280;4356;49.068;8.658;2023-10-09T11:07:01;100446.88;;;23.38;40.69
8637;BME280;4356;49.068;8.658;2023-10-09T11:09:47;100443.56;;;23.36;40.77
8637;BME280;4356;49.068;8.658;2023-10-09T11:12:32;100450.47;;;23.38;40.93
8637;BME280;4356;49.068;8.658;2023-10-09T11:15:36;100437.00;;;23.37;40.95
8637;BME280;4356;49.068;8.658;2023-10-09T11:18:15;100434.81;;;23.39;40.99
8637;BME280;4356;49.068;8.658;2023-10-09T11:20:57;100435.66;;;23.39;41.19
8637;BME280;4356;49.068;8.658;2023-10-09T11:23:29;100446.03;;;23.37;41.35
8637;BME280;4356;49.068;8.658;2023-10-09T11:26:03;100439.50;;;23.38;41.54
8637;BME280;4356;49.068;8.658;2023-10-09T11:29:10;100439.00;;;23.41;41.33
8637;BME280;4356;49.068;8.658;2023-10-09T11:31:56;100437.34;;;23.40;41.35
8637;BME280;4356;49.068;8.658;2023-10-09T11:34:22;100445.59;;;23.40;41.48
8637;BME280;4356;49.068;8.658;2023-10-09T11:36:58;100446.75;;;23.44;41.35
8637;BME280;4356;49.068;8.658;2023-10-09T11:39:31;100439.00;;;23.41;41.48
8637;BME280;4356;49.068;8.658;2023-10-09T11:42:01;100428.28;;;23.40;41.35
8637;BME280;4356;49.068;8.658;2023-10-09T11:44:40;100435.31;;;23.48;41.35
8637;BME280;4356;49.068;8.658;2023-10-09T11:47:07;100427.31;;;23.46;41.16
8637;BME280;4356;49.068;8.658;2023-10-09T11:49:58;100428.50;;;23.50;41.07
8637;BME280;4356;49.068;8.658;2023-10-09T11:52:30;100405.13;;;23.48;41.18
8637;BME280;4356;49.068;8.658;2023-10-09T11:55:11;100401.91;;;23.51;41.28
8637;BME280;4356;49.068;8.658;2023-10-09T11:57:40;100407.72;;;23.54;40.95
8637;BME280;4356;49.068;8.658;2023-10-09T12:00:06;100391.50;;;23.53;40.70
8637;BME280;4356;49.068;8.658;2023-10-09T12:02:55;100388.53;;;23.54;40.51
8637;BME280;4356;49.068;8.658;2023-10-09T12:05:20;100380.88;;;23.56;40.85
8637;BME280;4356;49.068;8.658;2023-10-09T12:07:46;100379.56;;;23.59;40.64
8637;BME280;4356;49.068;8.658;2023-10-09T12:10:12;100371.00;;;23.55;40.59
8637;BME280;4356;49.068;8.658;2023-10-09T12:12:41;100373.00;;;23.60;40.75
8637;BME280;4356;49.068;8.658;2023-10-09T12:15:12;100379.91;;;23.62;40.52
8637;BME280;4356;49.068;8.658;2023-10-09T12:17:45;100374.19;;;23.64;40.73
8637;BME280;4356;49.068;8.658;2023-10-09T12:20:13;100378.34;;;23.66;40.60
8637;BME280;4356;49.068;8.658;2023-10-09T12:22:58;100349.63;;;23.57;40.61
8637;BME280;4356;49.068;8.658;2023-10-09T12:25:25;100357.47;;;23.65;40.54
8637;BME280;4356;49.068;8.658;2023-10-09T12:27:50;100354.00;;;23.70;40.68
8637;BME280;4356;49.068;8.658;2023-10-09T12:30:19;100341.59;;;23.67;40.47
8637;BME280;4356;49.068;8.658;2023-10-09T12:32:55;100334.69;;;23.65;40.56
8637;BME280;4356;49.068;8.658;2023-10-09T12:35:22;100344.09;;;23.69;40.38
8637;BME280;4356;49.068;8.658;2023-10-09T12:37:50;100337.88;;;23.73;40.31
8637;BME280;4356;49.068;8.658;2023-10-09T12:40:15;100332.41;;;23.73;40.39
8637;BME280;4356;49.068;8.658;2023-10-09T12:42:49;100350.59;;;23.79;40.34
8637;BME280;4356;49.068;8.658;2023-10-09T12:45:15;100341.78;;;23.77;40.44
8637;BME280;4356;49.068;8.658;2023-10-09T12:47:42;100327.84;;;23.79;40.18
8637;BME280;4356;49.068;8.658;2023-10-09T12:50:08;100329.81;;;23.83;40.14
8637;BME280;4356;49.068;8.658;2023-10-09T12:52:39;100330.41;;;23.85;40.17
8637;BME280;4356;49.068;8.658;2023-10-09T12:55:05;100329.56;;;23.85;40.07
8637;BME280;4356;49.068;8.658;2023-10-09T12:57:35;100336.81;;;23.91;40.13
8637;BME280;4356;49.068;8.658;2023-10-09T13:00:02;100334.34;;;23.89;39.75
8637;BME280;4356;49.068;8.658;2023-10-09T13:02:36;100331.41;;;23.96;39.92
8637;BME280;4356;49.068;8.658;2023-10-09T13:05:01;100324.97;;;24.02;39.61
8637;BME280;4356;49.068;8.658;2023-10-09T13:07:31;100332.72;;;24.05;39.48
8637;BME280;4356;49.068;8.658;2023-10-09T13:09:56;100338.53;;;24.08;39.39
8637;BME280;4356;49.068;8.658;2023-10-09T13:12:34;100349.53;;;24.08;39.36
8637;BME280;4356;49.068;8.658;2023-10-09T13:15:08;100352.69;;;24.17;39.03
8637;BME280;4356;49.068;8.658;2023-10-09T13:17:38;100356.34;;;24.22;38.94
8637;BME280;4356;49.068;8.658;2023-10-09T13:20:04;100346.53;;;24.26;38.87
8637;BME280;4356;49.068;8.658;2023-10-09T13:22:40;100339.22;;;24.32;38.83
8637;BME280;4356;49.068;8.658;2023-10-09T13:25:10;100337.66;;;24.36;38.77
8637;BME280;4356;49.068;8.658;2023-10-09T13:27:42;100339.41;;;24.42;38.87
8637;BME280;4356;49.068;8.658;2023-10-09T13:30:13;100318.81;;;24.44;38.78
8637;BME280;4356;49.068;8.658;2023-10-09T13:32:49;100319.47;;;24.52;38.60
8637;BME280;4356;49.068;8.658;2023-10-09T13:35:18;100316.31;;;24.60;38.37
8637;BME280;4356;49.068;8.658;2023-10-09T13:37:47;100315.22;;;24.61;38.20
8637;BME280;4356;49.068;8.658;2023-10-09T13:40:21;100313.94;;;24.68;38.20
8637;BME280;4356;49.068;8.658;2023-10-09T13:42:56;100322.06;;;24.75;37.67
8637;BME280;4356;49.068;8.658;2023-10-09T13:45:25;100323.78;;;24.81;37.52
8637;BME280;4356;49.068;8.658;2023-10-09T13:47:56;100314.22;;;24.83;37.39
8637;BME280;4356;49.068;8.658;2023-10-09T13:50:25;100305.44;;;24.86;37.19
8637;BME280;4356;49.068;8.658;2023-10-09T13:52:57;100309.69;;;24.94;37.44
8637;BME280;4356;49.068;8.658;2023-10-09T13:55:22;100297.03;;;24.93;36.96
8637;BME280;4356;49.068;8.658;2023-10-09T13:57:55;100297.09;;;24.98;36.81